createdAt,value
2023-01-05T00:01:29.675Z,98230.30
2023-01-05T00:03:56.637Z,98224.85
2023-01-05T00:06:23.666Z,98214.38
2023-01-05T00:08:52.389Z,98204.41
2023-01-05T00:11:42.415Z,98198.02
2023-01-05T00:14:38.074Z,98190.40
2023-01-05T00:17:23.890Z,98181.23
2023-01-05T00:20:10.046Z,98175.62
2023-01-05T00:22:55.226Z,98182.21
2023-01-05T00:25:27.177Z,98184.05
2023-01-05T00:27:54.284Z,98188.64
2023-01-05T00:30:23.959Z,98184.15
2023-01-05T00:32:50.915Z,98184.13
2023-01-05T00:35:18.041Z,98177.09
2023-01-05T00:37:45.690Z,98176.10
2023-01-05T00:40:15.202Z,98168.65
2023-01-05T00:42:42.195Z,98163.61
2023-01-05T00:45:11.250Z,98172.30
2023-01-05T00:47:38.817Z,98167.39
2023-01-05T00:50:06.779Z,98163.66
2023-01-05T00:52:35.799Z,98164.10
2023-01-05T00:55:02.801Z,98162.96
2023-01-05T00:57:31.035Z,98161.80
2023-01-05T00:59:57.911Z,98161.23
2023-01-05T01:02:24.897Z,98158.37
2023-01-05T01:04:52.005Z,98158.68
2023-01-05T01:07:19.236Z,98146.82
2023-01-05T01:09:46.164Z,98142.27
2023-01-05T01:12:13.161Z,98137.23
2023-01-05T01:14:40.264Z,98135.77
2023-01-05T01:17:07.242Z,98143.03
2023-01-05T01:19:35.216Z,98140.09
2023-01-05T01:22:02.308Z,98134.27
2023-01-05T01:24:29.345Z,98127.61
2023-01-05T01:26:57.071Z,98123.41
2023-01-05T01:29:24.500Z,98111.57
2023-01-05T01:31:52.958Z,98100.44
2023-01-05T01:34:19.844Z,98094.48
2023-01-05T01:36:46.807Z,98087.80
2023-01-05T01:39:14.344Z,98083.67
2023-01-05T01:41:47.437Z,98078.38
2023-01-05T01:44:52.494Z,98078.84
2023-01-05T01:47:38.665Z,98065.17
2023-01-05T01:50:14.079Z,98065.27
2023-01-05T01:52:42.181Z,98054.38
2023-01-05T01:55:09.668Z,98039.86
2023-01-05T01:57:37.915Z,98035.44
2023-01-05T02:00:06.734Z,98022.36
2023-01-05T02:02:49.069Z,98023.36
2023-01-05T02:05:18.983Z,98004.95
2023-01-05T02:07:46.913Z,98002.86
2023-01-05T02:10:15.445Z,97996.65
2023-01-05T02:13:17.766Z,97982.23
2023-01-05T02:15:50.200Z,97978.41
2023-01-05T02:18:38.459Z,97984.98
2023-01-05T02:21:13.220Z,97981.83
2023-01-05T02:23:53.791Z,97976.23
2023-01-05T02:26:39.846Z,97984.79
2023-01-05T02:29:32.328Z,97983.27
2023-01-05T02:32:09.937Z,97986.73
2023-01-05T02:34:52.770Z,97987.14
2023-01-05T02:37:33.890Z,97986.88
2023-01-05T02:40:08.397Z,97979.88
2023-01-05T02:42:38.109Z,97974.33
2023-01-05T02:45:05.916Z,97966.45
2023-01-05T02:47:41.504Z,97967.98
2023-01-05T02:50:21.123Z,97961.68
2023-01-05T02:53:00.504Z,97956.74
2023-01-05T02:55:33.380Z,97951.67
2023-01-05T02:58:10.553Z,97952.88
2023-01-05T03:00:40.715Z,97952.78
2023-01-05T03:03:19.300Z,97945.83
2023-01-05T03:05:52.963Z,97944.08
2023-01-05T03:08:29.092Z,97930.01
2023-01-05T03:11:28.340Z,97928.53
2023-01-05T03:14:14.515Z,97920.42
2023-01-05T03:16:41.968Z,97912.27
2023-01-05T03:19:31.497Z,97897.34
2023-01-05T03:22:17.125Z,97893.06
2023-01-05T03:25:05.600Z,97897.66
2023-01-05T03:27:53.642Z,97894.66
2023-01-05T03:30:40.806Z,97892.60
2023-01-05T03:33:33.120Z,97881.48
2023-01-05T03:36:00.171Z,97880.02
2023-01-05T03:38:44.323Z,97881.19
2023-01-05T03:41:13.112Z,97864.98
2023-01-05T03:43:40.145Z,97866.02
2023-01-05T03:46:14.923Z,97864.33
2023-01-05T03:48:43.267Z,97856.23
2023-01-05T03:51:10.713Z,97860.39
2023-01-05T03:53:38.786Z,97852.63
2023-01-05T03:56:06.051Z,97844.76
2023-01-05T03:58:34.120Z,97839.95
2023-01-05T04:01:01.112Z,97848.25
2023-01-05T04:03:31.878Z,97850.05
2023-01-05T04:06:00.424Z,97851.42
2023-01-05T04:08:29.110Z,97841.48
2023-01-05T04:10:58.360Z,97841.04
2023-01-05T04:13:26.029Z,97832.55
2023-01-05T04:15:54.679Z,97838.86
2023-01-05T04:18:22.504Z,97836.88
2023-01-05T04:20:50.397Z,97827.78
2023-01-05T04:23:17.719Z,97832.35
2023-01-05T04:25:47.136Z,97831.39
2023-01-05T04:28:18.389Z,97820.02
2023-01-05T04:30:50.434Z,97818.98
2023-01-05T04:33:18.176Z,97804.23
2023-01-05T04:35:45.468Z,97797.06
2023-01-05T04:38:13.192Z,97791.83
2023-01-05T04:40:40.395Z,97782.59
2023-01-05T04:43:08.012Z,97777.46
2023-01-05T04:45:34.914Z,97778.25
2023-01-05T04:48:02.397Z,97760.23
2023-01-05T04:50:29.673Z,97755.57
2023-01-05T04:52:57.702Z,97761.96
2023-01-05T04:55:27.989Z,97742.67
2023-01-05T04:57:55.366Z,97737.58
2023-01-05T05:00:23.481Z,97729.27
2023-01-05T05:02:51.299Z,97731.55
2023-01-05T05:05:19.046Z,97743.99
2023-01-05T05:07:49.918Z,97737.54
2023-01-05T05:10:18.322Z,97750.84
2023-01-05T05:12:45.602Z,97743.35
2023-01-05T05:15:15.467Z,97745.91
2023-01-05T05:17:45.455Z,97742.84
2023-01-05T05:20:13.580Z,97739.14
2023-01-05T05:22:40.695Z,97734.90
2023-01-05T05:25:09.209Z,97732.33
2023-01-05T05:27:37.749Z,97731.27
2023-01-05T05:30:05.222Z,97725.61
2023-01-05T05:32:32.509Z,97724.14
2023-01-05T05:34:59.634Z,97725.25
2023-01-05T05:37:26.659Z,97718.02
2023-01-05T05:39:53.695Z,97721.63
2023-01-05T05:42:20.754Z,97719.23
2023-01-05T05:44:47.790Z,97714.52
2023-01-05T05:47:14.847Z,97719.02
2023-01-05T05:49:41.796Z,97720.41
2023-01-05T05:52:09.055Z,97710.17
2023-01-05T05:54:35.902Z,97710.34
2023-01-05T05:57:02.848Z,97707.98
2023-01-05T05:59:30.160Z,97705.70
2023-01-05T06:01:57.274Z,97703.49
2023-01-05T06:04:24.248Z,97715.23
2023-01-05T06:06:51.165Z,97718.33
2023-01-05T06:09:18.554Z,97724.55
2023-01-05T06:11:45.584Z,97712.14
2023-01-05T06:14:13.229Z,97717.79
2023-01-05T06:16:40.283Z,97716.89
2023-01-05T06:19:07.536Z,97718.17
2023-01-05T06:21:34.531Z,97726.89
2023-01-05T06:24:01.585Z,97739.52
2023-01-05T06:26:28.438Z,97735.66
2023-01-05T06:28:55.312Z,97738.09
2023-01-05T06:31:22.324Z,97741.48
2023-01-05T06:33:49.200Z,97730.52
2023-01-05T06:46:15.421Z,97717.14
2023-01-05T06:48:42.305Z,97720.70
2023-01-05T06:51:09.642Z,97722.18
2023-01-05T06:53:37.097Z,97720.49
2023-01-05T06:56:04.079Z,97711.94
2023-01-05T06:58:31.089Z,97713.13
2023-01-05T07:00:58.203Z,97709.29
2023-01-05T07:03:25.333Z,97702.75
2023-01-05T07:18:07.300Z,97711.63
2023-01-05T07:20:34.714Z,97707.38
2023-01-05T07:23:01.530Z,97699.16
2023-01-05T07:25:31.653Z,97697.06
2023-01-05T07:27:58.705Z,97695.67
2023-01-05T07:30:25.543Z,97687.39
2023-01-05T07:32:53.327Z,97690.81
2023-01-05T07:35:20.469Z,97683.22
2023-01-05T07:37:47.325Z,97667.34
2023-01-05T07:40:14.283Z,97669.62
2023-01-05T07:42:41.532Z,97670.91
2023-01-05T07:45:09.522Z,97675.52
2023-01-05T07:47:39.243Z,97664.35
2023-01-05T07:50:06.887Z,97666.13
2023-01-05T07:52:34.056Z,97666.59
2023-01-05T07:55:01.048Z,97660.59
2023-01-05T07:57:28.032Z,97669.40
2023-01-05T07:59:54.853Z,97672.20
2023-01-05T08:02:22.198Z,97674.60
2023-01-05T08:04:49.345Z,97666.16
2023-01-05T08:07:16.404Z,97661.45
2023-01-05T08:10:02.430Z,97670.54
2023-01-05T08:12:29.801Z,97662.70
2023-01-05T08:14:56.848Z,97668.64
2023-01-05T08:17:24.040Z,97663.83
2023-01-05T08:19:50.991Z,97663.95
2023-01-05T08:22:18.020Z,97662.51
2023-01-05T08:24:44.921Z,97670.36
2023-01-05T08:27:11.976Z,97678.30
2023-01-05T08:29:38.829Z,97667.81
2023-01-05T08:32:05.839Z,97673.11
2023-01-05T08:34:34.870Z,97663.36
2023-01-05T08:37:02.061Z,97662.55
2023-01-05T08:39:28.980Z,97667.38
2023-01-05T08:42:02.070Z,97670.98
2023-01-05T08:44:29.693Z,97675.77
2023-01-05T08:46:56.653Z,97679.19
2023-01-05T08:49:26.511Z,97682.47
2023-01-05T08:51:53.428Z,97679.03
2023-01-05T08:54:20.384Z,97672.84
2023-01-05T08:56:50.755Z,97674.52
2023-01-05T08:59:17.689Z,97669.87
2023-01-05T09:01:44.793Z,97661.17
2023-01-05T09:04:11.843Z,97662.29
2023-01-05T09:06:39.077Z,97663.65
2023-01-05T09:09:06.043Z,97660.50
2023-01-05T09:11:34.927Z,97655.67
2023-01-05T09:14:03.126Z,97651.00
2023-01-05T09:19:18.948Z,97640.05
2023-01-05T09:21:46.158Z,97640.94
2023-01-05T09:24:13.299Z,97644.26
2023-01-05T09:26:42.499Z,97642.41
2023-01-05T09:29:10.277Z,97643.46
2023-01-05T09:31:37.784Z,97649.59
2023-01-05T09:34:04.884Z,97652.02
2023-01-05T09:36:32.475Z,97648.67
2023-01-05T09:38:59.512Z,97647.48
2023-01-05T09:41:47.464Z,97654.94
2023-01-05T09:44:37.824Z,97655.06
2023-01-05T09:47:15.768Z,97654.59
2023-01-05T09:49:42.829Z,97660.81
2023-01-05T09:52:11.080Z,97656.45
2023-01-05T09:54:40.125Z,97658.79
2023-01-05T09:57:13.726Z,97650.29
2023-01-05T09:59:51.794Z,97644.74
2023-01-05T10:02:24.325Z,97649.77
2023-01-05T10:04:51.797Z,97651.31
2023-01-05T10:07:25.063Z,97647.13
2023-01-05T10:09:52.002Z,97653.08
2023-01-05T10:12:40.899Z,97648.69
2023-01-05T10:15:19.435Z,97643.13
2023-01-05T10:17:47.561Z,97635.82
2023-01-05T10:20:29.831Z,97630.55
2023-01-05T10:23:02.835Z,97630.17
2023-01-05T10:25:49.990Z,97627.13
2023-01-05T10:28:41.835Z,97624.13
2023-01-05T10:31:19.140Z,97628.83
2023-01-05T10:33:54.574Z,97632.13
2023-01-05T10:37:06.677Z,97626.52
2023-01-05T10:39:44.594Z,97621.37
2023-01-05T10:42:17.293Z,97623.61
2023-01-05T10:44:59.307Z,97622.35
2023-01-05T10:47:27.623Z,97615.59
2023-01-05T10:49:54.640Z,97612.49
2023-01-05T10:52:22.182Z,97609.44
2023-01-05T10:54:59.928Z,97603.50
2023-01-05T10:57:35.425Z,97600.82
2023-01-05T11:00:12.891Z,97599.70
2023-01-05T11:03:03.166Z,97599.27
2023-01-05T11:05:35.715Z,97599.95
2023-01-05T11:08:05.842Z,97600.73
2023-01-05T11:10:38.212Z,97590.47
2023-01-05T11:13:27.666Z,97586.87
2023-01-05T11:16:16.456Z,97582.31
2023-01-05T11:18:49.659Z,97582.89
2023-01-05T11:21:20.527Z,97580.08
2023-01-05T11:23:57.495Z,97578.46
2023-01-05T11:26:27.210Z,97579.42
2023-01-05T11:29:03.298Z,97579.52
2023-01-05T11:31:56.374Z,97577.49
2023-01-05T11:34:42.225Z,97578.24
2023-01-05T11:37:30.435Z,97574.12
2023-01-05T11:39:58.224Z,97574.48
2023-01-05T11:42:26.329Z,97572.77
2023-01-05T11:44:57.850Z,97572.34
2023-01-05T11:47:43.495Z,97570.00
2023-01-05T11:50:14.561Z,97565.77
2023-01-05T11:52:47.484Z,97568.79
2023-01-05T11:55:22.596Z,97563.62
2023-01-05T11:57:55.816Z,97557.45
2023-01-05T12:00:51.516Z,97563.17
2023-01-05T12:04:09.239Z,97565.16
2023-01-05T12:07:05.902Z,97568.06
2023-01-05T12:09:44.943Z,97577.39
2023-01-05T12:12:24.965Z,97571.81
2023-01-05T12:15:17.900Z,97574.37
2023-01-05T12:18:00.399Z,97573.67
2023-01-05T12:20:55.039Z,97572.16
2023-01-05T12:23:47.500Z,97571.80
2023-01-05T12:26:23.614Z,97570.13
2023-01-05T12:30:26.901Z,97574.09
2023-01-05T12:35:37.168Z,97567.38
2023-01-05T12:38:46.922Z,97565.36
2023-01-05T12:41:29.975Z,97570.13
2023-01-05T12:44:11.852Z,97573.03
2023-01-05T12:46:43.041Z,97576.30
2023-01-05T12:49:14.817Z,97575.25
2023-01-05T12:51:51.062Z,97578.72
2023-01-05T12:54:27.811Z,97581.23
2023-01-05T12:56:57.744Z,97573.90
2023-01-05T12:59:33.831Z,97569.64
2023-01-05T15:37:36.717Z,97591.40
2023-01-05T15:40:08.651Z,97585.06
2023-01-05T15:42:39.642Z,97582.20
2023-01-05T15:45:18.270Z,97581.02
2023-01-05T15:47:44.543Z,97581.23
2023-01-05T15:50:21.182Z,97578.14
2023-01-05T15:52:55.445Z,97581.59
2023-01-05T15:55:21.828Z,97572.09
2023-01-05T15:58:00.361Z,97569.73
2023-01-05T16:00:28.785Z,97571.09
2023-01-05T16:02:55.014Z,97573.30
2023-01-05T16:05:23.173Z,97576.45
2023-01-05T16:07:59.779Z,97572.94
2023-01-05T16:10:27.808Z,97574.33
2023-01-05T16:13:01.142Z,97573.79
2023-01-05T16:15:27.293Z,97573.84
2023-01-05T16:17:54.842Z,97577.63
2023-01-05T16:20:23.614Z,97578.60
2023-01-05T16:23:11.777Z,97571.30
2023-01-05T16:25:42.113Z,97575.10
2023-01-05T16:28:18.957Z,97573.27
2023-01-05T16:30:46.495Z,97578.36
2023-01-05T16:33:21.698Z,97575.80
2023-01-05T16:35:54.634Z,97588.14
2023-01-05T16:38:28.802Z,97588.20
2023-01-05T16:40:57.069Z,97594.17
2023-01-05T16:43:30.881Z,97595.87
2023-01-05T16:46:20.335Z,97596.00
2023-01-05T16:48:50.214Z,97602.46
2023-01-05T16:51:18.212Z,97614.08
2023-01-05T16:53:46.388Z,97615.23
2023-01-05T16:56:31.451Z,97611.37
2023-01-05T16:59:01.161Z,97616.75
2023-01-05T17:01:34.061Z,97612.85
2023-01-05T17:04:08.898Z,97614.11
2023-01-05T17:06:35.197Z,97620.77
2023-01-05T17:09:01.392Z,97618.08
2023-01-05T17:11:30.733Z,97626.83
2023-01-05T17:13:57.114Z,97625.23
2023-01-05T17:16:23.599Z,97628.20
2023-01-05T17:18:50.089Z,97635.63
2023-01-05T17:21:21.779Z,97642.42
2023-01-05T17:23:49.498Z,97637.96
2023-01-05T17:26:27.353Z,97642.75
2023-01-05T17:28:56.674Z,97639.17
2023-01-05T17:31:22.910Z,97641.81
2023-01-05T17:33:49.036Z,97639.60
2023-01-05T17:36:16.540Z,97641.17
2023-01-05T17:38:42.711Z,97642.14
2023-01-05T17:41:09.816Z,97649.25
2023-01-05T17:43:36.064Z,97652.67
2023-01-05T17:46:02.334Z,97650.70
2023-01-05T17:48:28.744Z,97654.04
2023-01-05T17:50:54.949Z,97653.98
2023-01-05T17:53:24.307Z,97653.73
2023-01-05T17:55:50.957Z,97654.09
2023-01-05T17:58:17.122Z,97653.67
2023-01-05T18:03:21.044Z,97647.47
2023-01-05T18:05:48.418Z,97650.30
2023-01-05T18:08:14.767Z,97652.52
2023-01-05T18:13:13.143Z,97657.90
2023-01-05T18:15:43.985Z,97662.31
2023-01-05T18:18:11.199Z,97662.70
2023-01-05T18:20:39.572Z,97668.02
2023-01-05T18:25:38.179Z,97668.98
2023-01-05T18:28:04.644Z,97677.09
2023-01-05T18:30:30.782Z,97672.31
2023-01-05T18:32:57.739Z,97669.11
2023-01-05T18:35:24.048Z,97672.14
2023-01-05T18:37:50.184Z,97670.09
2023-01-05T18:40:16.532Z,97671.12
2023-01-05T18:42:43.242Z,97669.35
2023-01-05T18:45:19.782Z,97669.25
2023-01-05T18:47:55.992Z,97671.84
2023-01-05T18:50:22.212Z,97667.11
2023-01-05T18:52:48.508Z,97666.24
2023-01-05T18:55:14.726Z,97668.50
2023-01-05T18:57:40.879Z,97671.89
2023-01-05T19:00:07.786Z,97670.45
2023-01-05T19:02:34.956Z,97670.33
2023-01-05T19:05:01.490Z,97666.20
2023-01-05T19:07:27.730Z,97673.41
2023-01-05T19:09:54.442Z,97676.89
2023-01-05T19:12:21.157Z,97676.59
2023-01-05T19:14:47.460Z,97672.52
2023-01-05T19:17:13.741Z,97681.41
2023-01-05T19:19:40.460Z,97682.42
2023-01-05T19:22:06.665Z,97681.80
2023-01-05T19:24:34.869Z,97688.28
2023-01-05T19:27:01.326Z,97682.48
2023-01-05T19:29:27.585Z,97685.34
2023-01-05T19:31:54.425Z,97686.70
2023-01-05T19:34:20.677Z,97686.70
2023-01-05T19:48:11.002Z,97702.80
2023-01-05T19:50:38.288Z,97701.95
2023-01-05T19:53:05.255Z,97706.92
2023-01-05T19:55:32.266Z,97707.41
2023-01-05T19:57:59.175Z,97709.16
2023-01-05T20:00:26.090Z,97705.52
2023-01-05T20:02:53.060Z,97709.98
2023-01-05T20:05:20.463Z,97708.91
2023-01-05T20:07:47.221Z,97712.14
2023-01-05T20:10:14.587Z,97711.25
2023-01-05T20:12:42.260Z,97716.86
2023-01-05T20:15:12.006Z,97715.77
2023-01-05T20:17:39.780Z,97718.54
2023-01-05T20:20:07.131Z,97719.58
2023-01-05T20:22:34.026Z,97724.58
2023-01-05T20:25:01.071Z,97726.37
2023-01-05T20:27:28.319Z,97724.61
2023-01-05T20:29:55.570Z,97732.74
2023-01-05T20:32:23.580Z,97734.96
2023-01-05T20:34:57.584Z,97738.50
2023-01-05T20:37:24.690Z,97741.42
2023-01-05T20:39:51.571Z,97743.31
2023-01-05T20:42:18.482Z,97743.16
2023-01-05T20:44:46.451Z,97740.92
2023-01-05T20:47:15.560Z,97743.27
2023-01-05T20:49:42.933Z,97746.92
2023-01-05T20:52:09.985Z,97749.14
2023-01-05T20:54:37.175Z,97746.32
2023-01-05T20:57:04.052Z,97744.20
2023-01-05T20:59:32.553Z,97752.91
2023-01-05T21:01:59.879Z,97750.66
2023-01-05T21:04:27.678Z,97753.53
2023-01-05T21:06:54.787Z,97754.13
2023-01-05T21:09:22.597Z,97754.29
2023-01-05T21:11:49.601Z,97752.30
2023-01-05T21:14:16.954Z,97757.15
2023-01-05T21:16:52.378Z,97759.33
2023-01-05T21:19:22.127Z,97762.70
2023-01-05T21:21:50.686Z,97765.15
2023-01-05T21:24:17.859Z,97770.21
2023-01-05T21:26:45.401Z,97778.87
2023-01-05T21:29:13.694Z,97783.48
2023-01-05T21:31:40.654Z,97788.58
2023-01-05T21:34:08.102Z,97794.14
2023-01-05T21:36:38.443Z,97791.78
2023-01-05T21:39:08.313Z,97793.59
2023-01-05T21:41:54.841Z,97792.23
2023-01-05T21:44:22.312Z,97794.65
2023-01-05T21:46:49.848Z,97796.58
2023-01-05T21:49:17.193Z,97797.85
2023-01-05T21:52:02.889Z,97806.11
2023-01-05T21:54:48.688Z,97804.33
2023-01-05T21:57:15.797Z,97806.53
2023-01-05T21:59:43.522Z,97809.65
2023-01-05T22:02:13.256Z,97811.38
2023-01-05T22:04:40.464Z,97812.42
2023-01-05T22:07:07.647Z,97810.61
2023-01-05T22:09:35.464Z,97809.89
2023-01-05T22:12:09.336Z,97809.92
2023-01-05T22:14:37.211Z,97807.55
2023-01-05T22:17:06.134Z,97799.02
2023-01-05T22:19:33.434Z,97807.86
2023-01-05T22:22:00.421Z,97806.13
2023-01-05T22:24:27.354Z,97807.80
2023-01-05T22:26:54.299Z,97798.90
2023-01-05T22:29:21.293Z,97803.04
2023-01-05T22:31:50.693Z,97800.57
2023-01-05T22:34:17.966Z,97805.94
2023-01-05T22:36:45.388Z,97814.30
2023-01-05T22:39:12.419Z,97820.48
2023-01-05T22:41:40.769Z,97824.32
2023-01-05T22:44:08.456Z,97833.85
2023-01-05T22:46:35.623Z,97839.85
2023-01-05T22:49:04.164Z,97847.17
2023-01-05T22:51:34.114Z,97855.13
2023-01-05T22:54:01.234Z,97867.86
2023-01-05T22:56:31.925Z,97876.55
2023-01-05T22:58:59.608Z,97887.65
2023-01-05T23:01:28.089Z,97894.15
2023-01-05T23:03:56.030Z,97900.20
2023-01-05T23:06:23.359Z,97903.30
2023-01-05T23:08:51.184Z,97913.23
2023-01-05T23:11:23.530Z,97911.79
2023-01-05T23:13:51.013Z,97917.03
2023-01-05T23:16:21.571Z,97919.55
2023-01-05T23:18:49.860Z,97925.42
2023-01-05T23:21:17.618Z,97938.43
2023-01-05T23:23:44.528Z,97941.70
2023-01-05T23:26:12.409Z,97945.70
2023-01-05T23:28:39.618Z,97955.59
2023-01-05T23:31:06.534Z,97961.14
2023-01-05T23:33:35.406Z,97963.79
2023-01-05T23:36:02.553Z,97965.80
2023-01-05T23:38:30.113Z,97967.63
2023-01-05T23:40:57.547Z,97976.66
2023-01-05T23:43:29.525Z,97983.25
2023-01-05T23:46:07.756Z,97985.98
2023-01-05T23:48:36.197Z,97988.86
2023-01-05T23:51:04.568Z,97987.25
2023-01-05T23:53:31.600Z,97993.43
2023-01-05T23:56:10.214Z,98000.07
2023-01-05T23:58:37.388Z,97997.73
